Time,TemperatureF,DewpointF,PressureIn,WindDirection,WindDirectionDegrees,WindSpeedMPH,WindSpeedGustMPH,Humidity,HourlyPrecipIn,Conditions,Clouds,dailyrainin,SoftwareType,DateUTC
2013-06-18 00:00:00,46.5,37.3,29.67,NE,45,0.0,0.0,70,0.00,,,-99.99,VWS V12.07,2013-06-18 05:00:00,
2013-06-18 00:05:00,46.2,37.3,29.68,NE,45,0.0,0.0,71,0.00,,,-99.99,VWS V12.07,2013-06-18 05:05:00,
2013-06-18 00:10:00,45.6,36.8,29.68,NE,45,0.0,0.0,71,0.00,,,-99.99,VWS V12.07,2013-06-18 05:10:00,
2013-06-18 00:15:00,45.5,36.7,29.68,NE,45,0.0,0.0,71,0.00,,,-99.99,VWS V12.07,2013-06-18 05:15:00,
2013-06-18 00:20:00,45.1,36.6,29.68,NE,45,0.0,0.0,72,0.00,,,-99.99,VWS V12.07,2013-06-18 05:20:00,
2013-06-18 00:25:00,44.7,36.2,29.68,NE,45,0.0,0.0,72,0.00,,,-99.99,VWS V12.07,2013-06-18 05:25:00,
2013-06-18 00:30:00,44.4,36.3,29.68,NE,45,0.0,0.0,73,0.00,,,-99.99,VWS V12.07,2013-06-18 05:30:00,
2013-06-18 00:35:00,44.2,36.1,29.68,NE,45,0.0,0.0,73,0.00,,,-99.99,VWS V12.07,2013-06-18 05:35:00,
2013-06-18 00:40:00,43.5,35.4,29.68,NE,45,2.2,2.2,73,0.00,,,-99.99,VWS V12.07,2013-06-18 05:40:00,
2013-06-18 00:45:00,43.5,35.8,29.68,NE,45,0.0,2.2,74,0.00,,,-99.99,VWS V12.07,2013-06-18 05:45:00,
2013-06-18 00:50:00,43.3,35.6,29.68,NE,45,0.0,1.5,74,0.00,,,-99.99,VWS V12.07,2013-06-18 05:50:00,
2013-06-18 00:55:00,43.3,35.6,29.68,NE,45,0.0,1.5,74,0.00,,,-99.99,VWS V12.07,2013-06-18 05:55:00,
2013-06-18 01:00:00,43.5,36.1,29.68,NE,45,0.0,1.5,75,0.00,,,-99.99,VWS V12.07,2013-06-18 06:00:00,
2013-06-18 01:05:00,43.5,36.1,29.68,NE,45,2.2,2.2,75,0.00,,,-99.99,VWS V12.07,2013-06-18 06:05:00,
2013-06-18 01:10:00,43.7,36.6,29.68,NE,45,0.0,3.1,76,0.00,,,-99.99,VWS V12.07,2013-06-18 06:10:00,
2013-06-18 01:15:00,44.0,36.9,29.68,NE,45,0.0,3.1,76,0.00,,,-99.99,VWS V12.07,2013-06-18 06:15:00,
2013-06-18 01:20:00,44.2,37.1,29.68,NE,45,0.0,0.0,76,0.00,,,-99.99,VWS V12.07,2013-06-18 06:20:00,
2013-06-18 01:25:00,44.4,37.3,29.68,NE,45,1.7,1.7,76,0.00,,,-99.99,VWS V12.07,2013-06-18 06:25:00,
2013-06-18 01:30:00,44.4,37.3,29.68,NE,45,0.0,1.7,76,0.00,,,-99.99,VWS V12.07,2013-06-18 06:30:00,
2013-06-18 01:35:00,44.4,37.3,29.68,NE,45,0.0,0.0,76,0.00,,,-99.99,VWS V12.07,2013-06-18 06:35:00,
2013-06-18 01:40:00,44.4,37.7,29.68,NE,45,1.3,3.3,77,0.00,,,-99.99,VWS V12.07,2013-06-18 06:40:00,
2013-06-18 01:45:00,44.4,37.7,29.68,NE,45,0.0,3.3,77,0.00,,,-99.99,VWS V12.07,2013-06-18 06:45:00,
2013-06-18 01:50:00,44.2,37.5,29.68,NE,45,0.0,2.9,77,0.00,,,-99.99,VWS V12.07,2013-06-18 06:50:00,
2013-06-18 01:55:00,44.4,37.7,29.68,NE,45,2.0,2.9,77,0.00,,,-99.99,VWS V12.07,2013-06-18 06:55:00,
2013-06-18 02:00:00,44.2,37.8,29.69,NE,45,2.2,2.9,78,0.00,,,-99.99,VWS V12.07,2013-06-18 07:00:00,
2013-06-18 02:05:00,44.2,37.8,29.69,NE,45,3.1,3.1,78,0.00,,,-99.99,VWS V12.07,2013-06-18 07:05:00,
2013-06-18 02:10:00,44.0,37.6,29.69,NE,45,1.1,3.1,78,0.00,,,-99.99,VWS V12.07,2013-06-18 07:10:00,
2013-06-18 02:15:00,44.0,37.6,29.69,NE,45,0.0,3.1,78,0.00,,,-99.99,VWS V12.07,2013-06-18 07:15:00,
2013-06-18 02:20:00,44.0,37.6,29.69,NE,45,2.4,2.4,78,0.00,,,-99.99,VWS V12.07,2013-06-18 07:20:00,
2013-06-18 02:25:00,44.0,37.6,29.69,NE,45,0.8,3.3,78,0.00,,,-99.99,VWS V12.07,2013-06-18 07:25:00,
2013-06-18 02:30:00,43.8,37.4,29.69,NE,45,2.9,3.3,78,0.00,,,-99.99,VWS V12.07,2013-06-18 07:30:00,
2013-06-18 02:35:00,43.8,37.4,29.69,NE,45,3.1,3.1,78,0.00,,,-99.99,VWS V12.07,2013-06-18 07:35:00,
2013-06-18 02:40:00,43.8,37.4,29.69,NE,45,0.0,3.1,78,0.00,,,-99.99,VWS V12.07,2013-06-18 07:40:00,
2013-06-18 02:45:00,43.7,37.3,29.69,NE,45,0.0,3.1,78,0.00,,,-99.99,VWS V12.07,2013-06-18 07:45:00,
2013-06-18 02:50:00,43.7,37.3,29.69,NE,45,0.0,0.0,78,0.00,,,-99.99,VWS V12.07,2013-06-18 07:50:00,
2013-06-18 02:55:00,43.5,37.1,29.69,NE,45,0.0,0.0,78,0.00,,,-99.99,VWS V12.07,2013-06-18 07:55:00,
2013-06-18 03:00:00,43.3,36.9,29.69,NE,45,0.0,0.0,78,0.00,,,-99.99,VWS V12.07,2013-06-18 08:00:00,
2013-06-18 03:05:00,43.1,36.7,29.69,NE,45,0.0,0.0,78,0.00,,,-99.99,VWS V12.07,2013-06-18 08:05:00,
2013-06-18 03:15:00,42.4,36.4,29.69,NE,45,0.0,0.0,79,0.00,,,-99.99,VWS V12.07,2013-06-18 08:15:00,
2013-06-18 03:20:00,42.0,36.0,29.68,NE,45,0.0,0.0,79,0.00,,,-99.99,VWS V12.07,2013-06-18 08:20:00,
2013-06-18 03:25:00,41.9,35.9,29.69,NE,45,0.0,0.0,79,0.00,,,-99.99,VWS V12.07,2013-06-18 08:25:00,
2013-06-18 03:30:00,41.5,35.5,29.69,NE,45,0.0,0.0,79,0.00,,,-99.99,VWS V12.07,2013-06-18 08:30:00,
2013-06-18 03:35:00,41.1,35.1,29.69,NE,45,0.0,0.0,79,0.00,,,-99.99,VWS V12.07,2013-06-18 08:35:00,
2013-06-18 03:40:00,40.8,35.1,29.69,NE,45,0.0,0.0,80,0.00,,,-99.99,VWS V12.07,2013-06-18 08:40:00,
2013-06-18 03:45:00,40.6,34.9,29.69,NE,45,0.0,0.0,80,0.00,,,-99.99,VWS V12.07,2013-06-18 08:45:00,
2013-06-18 03:50:00,40.2,34.5,29.69,NE,45,0.0,0.0,80,0.00,,,-99.99,VWS V12.07,2013-06-18 08:50:00,
2013-06-18 03:55:00,39.9,34.2,29.69,NE,45,0.0,0.0,80,0.00,,,-99.99,VWS V12.07,2013-06-18 08:55:00,
2013-06-18 04:00:00,39.7,34.0,29.69,NE,45,0.0,0.0,80,0.00,,,-99.99,VWS V12.07,2013-06-18 09:00:00,
2013-06-18 04:05:00,39.3,33.7,29.70,NE,45,0.0,0.0,80,0.00,,,-99.99,VWS V12.07,2013-06-18 09:05:00,
2013-06-18 04:10:00,39.0,33.7,29.70,NE,45,0.0,0.0,81,0.00,,,-99.99,VWS V12.07,2013-06-18 09:10:00,
2013-06-18 04:15:00,38.8,33.5,29.70,NE,45,0.0,0.0,81,0.00,,,-99.99,VWS V12.07,2013-06-18 09:15:00,
2013-06-18 04:20:00,38.8,33.5,29.70,NE,45,0.0,0.0,81,0.00,,,-99.99,VWS V12.07,2013-06-18 09:20:00,
2013-06-18 04:25:00,38.4,33.1,29.70,NE,45,0.0,0.0,81,0.00,,,-99.99,VWS V12.07,2013-06-18 09:25:00,
2013-06-18 04:30:00,38.1,32.8,29.70,NE,45,0.0,0.0,81,0.00,,,-99.99,VWS V12.07,2013-06-18 09:30:00,
2013-06-18 04:35:00,37.9,32.6,29.70,NE,45,0.0,0.0,81,0.00,,,-99.99,VWS V12.07,2013-06-18 09:35:00,
2013-06-18 04:40:00,37.5,32.2,29.70,NE,45,0.0,0.0,81,0.00,,,-99.99,VWS V12.07,2013-06-18 09:40:00,
2013-06-18 04:45:00,37.5,32.2,29.70,NE,45,0.0,0.0,81,0.00,,,-99.99,VWS V12.07,2013-06-18 09:45:00,
2013-06-18 04:50:00,37.2,31.9,29.70,NE,45,0.0,0.0,81,0.00,,,-99.99,VWS V12.07,2013-06-18 09:50:00,
2013-06-18 04:55:00,37.0,31.7,29.70,NE,45,0.0,0.0,81,0.00,,,-99.99,VWS V12.07,2013-06-18 09:55:00,
2013-06-18 05:00:00,36.8,31.5,29.70,NE,45,0.0,0.0,81,0.00,,,-99.99,VWS V12.07,2013-06-18 10:00:00,
2013-06-18 05:05:00,36.6,31.6,29.70,NE,45,0.0,0.0,82,0.00,,,-99.99,VWS V12.07,2013-06-18 10:05:00,
2013-06-18 05:10:00,36.3,31.3,29.70,NE,45,0.0,0.0,82,0.00,,,-99.99,VWS V12.07,2013-06-18 10:10:00,
2013-06-18 05:15:00,36.3,31.3,29.71,NE,45,0.0,0.0,82,0.00,,,-99.99,VWS V12.07,2013-06-18 10:15:00,
2013-06-18 05:20:00,36.3,31.3,29.71,NE,45,0.0,0.0,82,0.00,,,-99.99,VWS V12.07,2013-06-18 10:20:00,
2013-06-18 05:25:00,36.1,31.1,29.71,NE,45,0.0,0.0,82,0.00,,,-99.99,VWS V12.07,2013-06-18 10:25:00,
2013-06-18 05:30:00,36.1,31.1,29.71,NE,45,0.0,0.0,82,0.00,,,-99.99,VWS V12.07,2013-06-18 10:30:00,
2013-06-18 05:35:00,36.1,31.1,29.71,NE,45,0.0,0.0,82,0.00,,,-99.99,VWS V12.07,2013-06-18 10:35:00,
2013-06-18 05:40:00,36.1,31.1,29.72,NE,45,0.0,0.0,82,0.00,,,-99.99,VWS V12.07,2013-06-18 10:40:00,
2013-06-18 05:45:00,36.3,31.6,29.71,NE,45,0.0,0.0,83,0.00,,,-99.99,VWS V12.07,2013-06-18 10:45:00,
2013-06-18 05:50:00,36.6,31.9,29.71,NE,45,0.0,0.0,83,0.00,,,-99.99,VWS V12.07,2013-06-18 10:50:00,
2013-06-18 05:55:00,38.1,33.7,29.71,NE,45,0.0,0.0,84,0.00,,,-99.99,VWS V12.07,2013-06-18 10:55:00,
2013-06-18 06:00:00,39.5,35.4,29.71,NE,45,0.0,0.0,85,0.00,,,-99.99,VWS V12.07,2013-06-18 11:00:00,
2013-06-18 06:05:00,41.3,37.1,29.71,NE,45,0.0,0.0,85,0.00,,,-99.99,VWS V12.07,2013-06-18 11:05:00,
2013-06-18 06:10:00,43.8,39.0,29.71,NE,45,0.0,0.0,83,0.00,,,-99.99,VWS V12.07,2013-06-18 11:10:00,
2013-06-18 06:20:00,45.6,39.5,29.71,NE,45,0.0,1.7,79,0.00,,,-99.99,VWS V12.07,2013-06-18 11:20:00,
2013-06-18 06:25:00,46.2,39.7,29.72,NE,45,3.3,3.8,78,0.00,,,-99.99,VWS V12.07,2013-06-18 11:25:00,
2013-06-18 06:30:00,46.0,39.5,29.72,NE,45,0.0,3.8,78,0.00,,,-99.99,VWS V12.07,2013-06-18 11:30:00,
2013-06-18 06:35:00,46.2,39.7,29.72,NE,45,0.0,0.6,78,0.00,,,-99.99,VWS V12.07,2013-06-18 11:35:00,
2013-06-18 06:40:00,46.2,39.7,29.72,NE,45,0.0,2.6,78,0.00,,,-99.99,VWS V12.07,2013-06-18 11:40:00,
2013-06-18 06:45:00,46.5,40.0,29.73,NE,45,0.2,2.6,78,0.00,,,-99.99,VWS V12.07,2013-06-18 11:45:00,
2013-06-18 06:50:00,46.9,40.4,29.73,NE,45,2.4,2.4,78,0.00,,,-99.99,VWS V12.07,2013-06-18 11:50:00,
2013-06-18 06:55:00,47.3,40.8,29.73,NE,45,0.0,2.4,78,0.00,,,-99.99,VWS V12.07,2013-06-18 11:55:00,
2013-06-18 07:00:00,47.8,41.3,29.73,NE,45,0.0,2.4,78,0.00,,,-99.99,VWS V12.07,2013-06-18 12:00:00,
2013-06-18 07:05:00,48.2,41.7,29.73,NE,45,0.0,0.0,78,0.00,,,-99.99,VWS V12.07,2013-06-18 12:05:00,
2013-06-18 07:10:00,48.7,41.8,29.73,NE,45,0.0,2.0,77,0.00,,,-99.99,VWS V12.07,2013-06-18 12:10:00,
2013-06-18 07:15:00,49.1,42.2,29.73,NE,45,2.0,2.0,77,0.00,,,-99.99,VWS V12.07,2013-06-18 12:15:00,
2013-06-18 07:20:00,49.6,42.4,29.73,NE,45,1.1,2.2,76,0.00,,,-99.99,VWS V12.07,2013-06-18 12:20:00,
2013-06-18 07:25:00,50.1,42.8,29.73,NE,45,0.0,2.2,76,0.00,,,-99.99,VWS V12.07,2013-06-18 12:25:00,
2013-06-18 07:30:00,50.5,42.9,29.73,NE,45,0.0,2.2,75,0.00,,,-99.99,VWS V12.07,2013-06-18 12:30:00,
2013-06-18 07:35:00,50.9,43.3,29.74,NE,45,2.0,2.0,75,0.00,,,-99.99,VWS V12.07,2013-06-18 12:35:00,
2013-06-18 07:40:00,51.6,44.0,29.74,NE,45,1.1,2.0,75,0.00,,,-99.99,VWS V12.07,2013-06-18 12:40:00,
2013-06-18 07:45:00,52.1,44.1,29.73,NE,45,0.0,2.0,74,0.00,,,-99.99,VWS V12.07,2013-06-18 12:45:00,
2013-06-18 07:50:00,52.5,44.1,29.74,NE,45,2.0,3.1,73,0.00,,,-99.99,VWS V12.07,2013-06-18 12:50:00,
2013-06-18 07:55:00,53.0,44.2,29.74,NE,45,0.0,3.1,72,0.00,,,-99.99,VWS V12.07,2013-06-18 12:55:00,
2013-06-18 08:00:00,53.4,44.2,29.74,NE,45,0.8,3.1,71,0.00,,,-99.99,VWS V12.07,2013-06-18 13:00:00,
2013-06-18 08:05:00,53.4,44.2,29.74,NE,45,1.5,2.6,71,0.00,,,-99.99,VWS V12.07,2013-06-18 13:05:00,
2013-06-18 08:10:00,53.7,44.2,29.75,NE,45,0.0,4.0,70,0.00,,,-99.99,VWS V12.07,2013-06-18 13:10:00,
2013-06-18 08:15:00,53.7,44.2,29.75,NE,45,1.5,4.0,70,0.00,,,-99.99,VWS V12.07,2013-06-18 13:15:00,
2013-06-18 08:20:00,53.9,44.3,29.75,NE,45,0.0,1.5,70,0.00,,,-99.99,VWS V12.07,2013-06-18 13:20:00,
2013-06-18 08:25:00,54.5,44.5,29.75,NE,45,0.0,1.5,69,0.00,,,-99.99,VWS V12.07,2013-06-18 13:25:00,
2013-06-18 08:30:00,54.8,44.8,29.75,NE,45,0.0,3.1,69,0.00,,,-99.99,VWS V12.07,2013-06-18 13:30:00,
2013-06-18 08:35:00,55.0,45.0,29.75,NE,45,2.9,2.9,69,0.00,,,-99.99,VWS V12.07,2013-06-18 13:35:00,
2013-06-18 08:40:00,55.4,45.0,29.75,NE,45,2.0,2.9,68,0.00,,,-99.99,VWS V12.07,2013-06-18 13:40:00,
2013-06-18 08:45:00,55.7,45.3,29.75,NE,45,2.2,2.9,68,0.00,,,-99.99,VWS V12.07,2013-06-18 13:45:00,
2013-06-18 08:50:00,56.1,45.7,29.75,NE,45,2.9,2.9,68,0.00,,,-99.99,VWS V12.07,2013-06-18 13:50:00,
2013-06-18 08:55:00,56.3,45.5,29.75,NE,45,0.0,4.9,67,0.00,,,-99.99,VWS V12.07,2013-06-18 13:55:00,
2013-06-18 09:00:00,56.6,45.8,29.75,NE,45,0.0,4.9,67,0.00,,,-99.99,VWS V12.07,2013-06-18 14:00:00,
2013-06-18 09:05:00,56.8,45.6,29.75,NE,45,0.0,0.0,66,0.00,,,-99.99,VWS V12.07,2013-06-18 14:05:00,
2013-06-18 09:10:00,57.0,45.8,29.75,NE,45,0.0,0.0,66,0.00,,,-99.99,VWS V12.07,2013-06-18 14:10:00,
2013-06-18 09:15:00,57.3,46.0,29.75,NE,45,0.0,0.0,66,0.00,,,-99.99,VWS V12.07,2013-06-18 14:15:00,
2013-06-18 09:20:00,57.7,46.0,29.75,SE,135,0.0,0.0,65,0.00,,,-99.99,VWS V12.07,2013-06-18 14:20:00,
2013-06-18 09:25:00,57.9,46.2,29.75,NE,45,0.0,0.0,65,0.00,,,-99.99,VWS V12.07,2013-06-18 14:25:00,
2013-06-18 09:30:00,58.1,46.0,29.75,NE,45,0.0,0.0,64,0.00,,,-99.99,VWS V12.07,2013-06-18 14:30:00,
2013-06-18 09:35:00,58.2,46.1,29.75,NE,45,2.0,2.0,64,0.00,,,-99.99,VWS V12.07,2013-06-18 14:35:00,
2013-06-18 09:40:00,58.6,46.5,29.75,NE,45,0.0,2.0,64,0.00,,,-99.99,VWS V12.07,2013-06-18 14:40:00,
2013-06-18 09:45:00,58.8,46.2,29.75,NE,45,3.8,3.8,63,0.00,,,-99.99,VWS V12.07,2013-06-18 14:45:00,
2013-06-18 09:50:00,58.8,45.8,29.75,SSW,202,0.6,3.8,62,0.00,,,-99.99,VWS V12.07,2013-06-18 14:50:00,
2013-06-18 09:55:00,59.1,46.1,29.75,NE,45,2.4,4.6,62,0.00,,,-99.99,VWS V12.07,2013-06-18 14:55:00,
2013-06-18 10:00:00,59.3,45.9,29.75,NE,45,0.0,4.6,61,0.00,,,-99.99,VWS V12.07,2013-06-18 15:00:00,
2013-06-18 10:05:00,59.5,46.1,29.75,NE,45,0.0,3.1,61,0.00,,,-99.99,VWS V12.07,2013-06-18 15:05:00,
2013-06-18 10:10:00,59.7,45.8,29.75,NE,45,2.9,3.1,60,0.00,,,-99.99,VWS V12.07,2013-06-18 15:10:00,
2013-06-18 10:15:00,59.9,45.1,29.75,NE,45,3.1,5.3,58,0.00,,,-99.99,VWS V12.07,2013-06-18 15:15:00,
2013-06-18 10:20:00,60.0,45.2,29.75,ENE,68,5.5,5.5,58,0.00,,,-99.99,VWS V12.07,2013-06-18 15:20:00,
2013-06-18 10:25:00,60.0,45.2,29.75,NE,45,5.5,5.5,58,0.00,,,-99.99,VWS V12.07,2013-06-18 15:25:00,
2013-06-18 10:35:00,60.4,45.1,29.75,NE,45,3.1,3.1,57,0.00,,,-99.99,VWS V12.07,2013-06-18 15:35:00,
2013-06-18 10:40:00,60.6,45.3,29.75,ENE,68,2.9,5.8,57,0.00,,,-99.99,VWS V12.07,2013-06-18 15:40:00,
2013-06-18 10:45:00,60.6,44.8,29.75,NE,45,3.3,7.1,56,0.00,,,-99.99,VWS V12.07,2013-06-18 15:45:00,
2013-06-18 10:50:00,60.8,45.0,29.75,NE,45,4.6,5.1,56,0.00,,,-99.99,VWS V12.07,2013-06-18 15:50:00,
2013-06-18 10:55:00,60.9,45.1,29.75,ENE,68,0.0,5.1,56,0.00,,,-99.99,VWS V12.07,2013-06-18 15:55:00,
2013-06-18 11:00:00,61.1,45.3,29.75,ENE,68,0.0,5.1,56,0.00,,,-99.99,VWS V12.07,2013-06-18 16:00:00,
2013-06-18 11:05:00,61.3,45.5,29.75,NE,45,6.2,6.2,56,0.00,,,-99.99,VWS V12.07,2013-06-18 16:05:00,
2013-06-18 11:10:00,61.5,44.7,29.75,ENE,68,2.0,6.2,54,0.00,,,-99.99,VWS V12.07,2013-06-18 16:10:00,
2013-06-18 11:15:00,61.7,44.9,29.75,NE,45,6.7,6.7,54,0.00,,,-99.99,VWS V12.07,2013-06-18 16:15:00,
2013-06-18 11:20:00,61.7,44.9,29.75,NE,45,0.0,6.7,54,0.00,,,-99.99,VWS V12.07,2013-06-18 16:20:00,
2013-06-18 11:25:00,61.8,45.0,29.75,NE,45,0.0,6.7,54,0.00,,,-99.99,VWS V12.07,2013-06-18 16:25:00,
2013-06-18 11:30:00,62.2,45.4,29.75,NE,45,6.2,6.7,54,0.00,,,-99.99,VWS V12.07,2013-06-18 16:30:00,
2013-06-18 11:35:00,62.4,45.5,29.75,NNE,22,6.0,6.2,54,0.00,,,-99.99,VWS V12.07,2013-06-18 16:35:00,
2013-06-18 11:40:00,62.4,45.5,29.75,NE,45,2.0,6.2,54,0.00,,,-99.99,VWS V12.07,2013-06-18 16:40:00,
2013-06-18 11:50:00,62.7,45.8,29.74,NE,45,1.7,6.0,54,0.00,,,-99.99,VWS V12.07,2013-06-18 16:50:00,
2013-06-18 11:55:00,62.9,46.0,29.74,NNE,22,4.9,6.0,54,0.00,,,-99.99,VWS V12.07,2013-06-18 16:55:00,
2013-06-18 12:00:00,63.1,46.2,29.74,NNE,22,4.2,6.0,54,0.00,,,-99.99,VWS V12.07,2013-06-18 17:00:00,
2013-06-18 12:10:00,63.3,45.9,29.74,NE,45,4.0,5.8,53,0.00,,,-99.99,VWS V12.07,2013-06-18 17:10:00,
2013-06-18 12:15:00,63.5,46.1,29.73,SE,135,0.0,5.8,53,0.00,,,-99.99,VWS V12.07,2013-06-18 17:15:00,
2013-06-18 12:20:00,63.6,46.2,29.73,NE,45,5.3,5.3,53,0.00,,,-99.99,VWS V12.07,2013-06-18 17:20:00,
2013-06-18 12:25:00,63.8,46.4,29.74,NE,45,0.0,5.3,53,0.00,,,-99.99,VWS V12.07,2013-06-18 17:25:00,
2013-06-18 12:30:00,64.0,46.0,29.73,ENE,68,4.4,5.3,52,0.00,,,-99.99,VWS V12.07,2013-06-18 17:30:00,
2013-06-18 12:35:00,64.0,46.0,29.74,NE,45,4.9,4.9,52,0.00,,,-99.99,VWS V12.07,2013-06-18 17:35:00,
2013-06-18 12:40:00,64.2,46.2,29.74,NE,45,4.6,4.9,52,0.00,,,-99.99,VWS V12.07,2013-06-18 17:40:00,
2013-06-18 12:45:00,64.2,46.2,29.73,NE,45,1.3,4.9,52,0.00,,,-99.99,VWS V12.07,2013-06-18 17:45:00,
2013-06-18 12:50:00,64.2,45.7,29.74,NE,45,5.5,5.5,51,0.00,,,-99.99,VWS V12.07,2013-06-18 17:50:00,
2013-06-18 12:55:00,64.2,45.7,29.73,NE,45,0.0,5.5,51,0.00,,,-99.99,VWS V12.07,2013-06-18 17:55:00,
2013-06-18 13:00:00,64.2,45.7,29.74,ENE,68,0.2,5.5,51,0.00,,,-99.99,VWS V12.07,2013-06-18 18:00:00,
2013-06-18 13:05:00,64.4,45.9,29.73,NE,45,1.1,1.1,51,0.00,,,-99.99,VWS V12.07,2013-06-18 18:05:00,
2013-06-18 13:10:00,64.5,46.0,29.73,East,90,0.0,1.1,51,0.00,,,-99.99,VWS V12.07,2013-06-18 18:10:00,
2013-06-18 13:15:00,64.5,45.5,29.73,NE,45,1.3,5.1,50,0.00,,,-99.99,VWS V12.07,2013-06-18 18:15:00,
2013-06-18 13:20:00,64.7,45.7,29.73,NE,45,0.0,4.9,50,0.00,,,-99.99,VWS V12.07,2013-06-18 18:20:00,
2013-06-18 13:30:00,64.9,45.3,29.73,NE,45,1.5,9.3,49,0.00,,,-99.99,VWS V12.07,2013-06-18 18:30:00,
2013-06-18 13:35:00,64.9,45.3,29.73,NNE,22,6.0,6.0,49,0.00,,,-99.99,VWS V12.07,2013-06-18 18:35:00,
2013-06-18 13:40:00,65.1,45.5,29.73,ENE,68,2.0,6.0,49,0.00,,,-99.99,VWS V12.07,2013-06-18 18:40:00,
2013-06-18 13:45:00,64.9,45.3,29.73,NE,45,1.5,6.0,49,0.00,,,-99.99,VWS V12.07,2013-06-18 18:45:00,
2013-06-18 13:50:00,65.1,45.5,29.73,NE,45,0.0,1.5,49,0.00,,,-99.99,VWS V12.07,2013-06-18 18:50:00,
2013-06-18 13:55:00,65.1,44.9,29.72,NNE,22,0.4,2.2,48,0.00,,,-99.99,VWS V12.07,2013-06-18 18:55:00,
2013-06-18 14:00:00,65.3,45.1,29.73,NNE,22,0.0,2.2,48,0.00,,,-99.99,VWS V12.07,2013-06-18 19:00:00,
2013-06-18 14:10:00,65.4,45.8,29.72,NE,45,0.8,2.9,49,0.00,,,-99.99,VWS V12.07,2013-06-18 19:10:00,
2013-06-18 14:15:00,65.4,45.8,29.72,ENE,68,3.1,3.1,49,0.00,,,-99.99,VWS V12.07,2013-06-18 19:15:00,
2013-06-18 14:20:00,65.6,45.4,29.72,NNE,22,0.0,6.0,48,0.00,,,-99.99,VWS V12.07,2013-06-18 19:20:00,
2013-06-18 14:25:00,65.8,45.0,29.72,SW,225,6.7,6.7,47,0.00,,,-99.99,VWS V12.07,2013-06-18 19:25:00,
2013-06-18 14:30:00,65.8,44.5,29.72,West,270,2.4,6.7,46,0.00,,,-99.99,VWS V12.07,2013-06-18 19:30:00,
2013-06-18 14:40:00,66.0,45.2,29.72,NE,45,2.9,3.8,47,0.00,,,-99.99,VWS V12.07,2013-06-18 19:40:00,
2013-06-18 14:45:00,66.0,45.2,29.72,NE,45,0.0,3.8,47,0.00,,,-99.99,VWS V12.07,2013-06-18 19:45:00,
2013-06-18 14:50:00,66.3,45.5,29.72,NE,45,2.9,2.9,47,0.00,,,-99.99,VWS V12.07,2013-06-18 19:50:00,
2013-06-18 14:55:00,66.5,45.7,29.72,NE,45,0.0,2.9,47,0.00,,,-99.99,VWS V12.07,2013-06-18 19:55:00,
2013-06-18 15:00:00,66.7,45.3,29.72,NE,45,1.7,2.9,46,0.00,,,-99.99,VWS V12.07,2013-06-18 20:00:00,
2013-06-18 15:05:00,66.7,45.8,29.72,South,180,0.0,2.0,47,0.00,,,-99.99,VWS V12.07,2013-06-18 20:05:00,
2013-06-18 15:10:00,66.9,45.5,29.72,NE,45,1.5,2.0,46,0.00,,,-99.99,VWS V12.07,2013-06-18 20:10:00,
2013-06-18 15:15:00,66.9,45.5,29.72,NE,45,0.0,2.0,46,0.00,,,-99.99,VWS V12.07,2013-06-18 20:15:00,
2013-06-18 15:20:00,67.2,45.7,29.72,South,180,0.0,2.9,46,0.00,,,-99.99,VWS V12.07,2013-06-18 20:20:00,
2013-06-18 15:30:00,67.6,46.1,29.72,NE,45,0.0,5.1,46,0.00,,,-99.99,VWS V12.07,2013-06-18 20:30:00,
2013-06-18 15:35:00,67.6,45.5,29.72,NE,45,0.0,6.9,45,0.00,,,-99.99,VWS V12.07,2013-06-18 20:35:00,
2013-06-18 15:40:00,67.8,45.7,29.72,NE,45,0.0,6.9,45,0.00,,,-99.99,VWS V12.07,2013-06-18 20:40:00,
2013-06-18 15:45:00,67.8,45.7,29.72,NE,45,0.0,6.9,45,0.00,,,-99.99,VWS V12.07,2013-06-18 20:45:00,
2013-06-18 15:50:00,67.8,45.7,29.72,NE,45,1.1,5.3,45,0.00,,,-99.99,VWS V12.07,2013-06-18 20:50:00,
2013-06-18 15:55:00,67.6,45.5,29.71,NE,45,0.0,5.3,45,0.00,,,-99.99,VWS V12.07,2013-06-18 20:55:00,
2013-06-18 16:00:00,67.8,45.7,29.71,NE,45,6.2,6.2,45,0.00,,,-99.99,VWS V12.07,2013-06-18 21:00:00,
2013-06-18 16:05:00,67.8,45.7,29.71,NNE,22,0.0,6.2,45,0.00,,,-99.99,VWS V12.07,2013-06-18 21:05:00,
2013-06-18 16:10:00,67.8,45.7,29.71,NNE,22,2.0,6.2,45,0.00,,,-99.99,VWS V12.07,2013-06-18 21:10:00,
2013-06-18 16:15:00,68.1,46.0,29.71,SSW,202,0.0,6.2,45,0.00,,,-99.99,VWS V12.07,2013-06-18 21:15:00,
2013-06-18 16:20:00,68.1,46.0,29.71,NE,45,0.0,0.0,45,0.00,,,-99.99,VWS V12.07,2013-06-18 21:20:00,
2013-06-18 16:30:00,68.3,46.2,29.71,NE,45,0.0,2.4,45,0.00,,,-99.99,VWS V12.07,2013-06-18 21:30:00,
2013-06-18 16:35:00,68.5,46.3,29.70,SSE,158,0.0,0.0,45,0.00,,,-99.99,VWS V12.07,2013-06-18 21:35:00,
2013-06-18 16:40:00,68.7,46.5,29.70,SSE,158,0.0,0.0,45,0.00,,,-99.99,VWS V12.07,2013-06-18 21:40:00,
2013-06-18 16:45:00,68.7,45.9,29.70,NE,45,4.0,4.4,44,0.00,,,-99.99,VWS V12.07,2013-06-18 21:45:00,
2013-06-18 16:50:00,68.7,45.9,29.70,NE,45,1.7,4.0,44,0.00,,,-99.99,VWS V12.07,2013-06-18 21:50:00,
2013-06-18 16:55:00,68.7,46.5,29.70,NE,45,0.0,4.0,45,0.00,,,-99.99,VWS V12.07,2013-06-18 21:55:00,
2013-06-18 17:00:00,68.7,46.5,29.70,WNW,292,0.0,4.0,45,0.00,,,-99.99,VWS V12.07,2013-06-18 22:00:00,
2013-06-18 17:05:00,69.0,46.8,29.70,SW,225,0.0,3.1,45,0.00,,,-99.99,VWS V12.07,2013-06-18 22:05:00,
2013-06-18 17:10:00,69.6,46.8,29.70,SW,225,0.0,3.1,44,0.00,,,-99.99,VWS V12.07,2013-06-18 22:10:00,
2013-06-18 17:15:00,69.8,46.3,29.70,SSW,202,2.2,3.1,43,0.00,,,-99.99,VWS V12.07,2013-06-18 22:15:00,
2013-06-18 17:20:00,70.1,46.6,29.70,SSW,202,0.0,2.9,43,0.00,,,-99.99,VWS V12.07,2013-06-18 22:20:00,
2013-06-18 17:25:00,70.3,46.8,29.70,NE,45,4.0,4.0,43,0.00,,,-99.99,VWS V12.07,2013-06-18 22:25:00,
2013-06-18 17:30:00,70.3,46.8,29.70,NE,45,0.0,4.0,43,0.00,,,-99.99,VWS V12.07,2013-06-18 22:30:00,
2013-06-18 17:40:00,70.1,46.6,29.70,SW,225,2.2,2.6,43,0.00,,,-99.99,VWS V12.07,2013-06-18 22:40:00,
2013-06-18 17:45:00,70.3,46.8,29.70,SW,225,0.0,3.1,43,0.00,,,-99.99,VWS V12.07,2013-06-18 22:45:00,
2013-06-18 17:50:00,70.1,46.6,29.70,SW,225,0.0,3.1,43,0.00,,,-99.99,VWS V12.07,2013-06-18 22:50:00,
2013-06-18 17:55:00,70.3,46.8,29.70,NE,45,3.5,3.5,43,0.00,,,-99.99,VWS V12.07,2013-06-18 22:55:00,
2013-06-18 18:00:00,70.7,47.1,29.70,NE,45,0.0,3.5,43,0.00,,,-99.99,VWS V12.07,2013-06-18 23:00:00,
2013-06-18 18:05:00,71.2,47.6,29.69,South,180,0.0,0.0,43,0.00,,,-99.99,VWS V12.07,2013-06-18 23:05:00,
2013-06-18 18:10:00,72.1,48.4,29.69,South,180,0.0,0.0,43,0.00,,,-99.99,VWS V12.07,2013-06-18 23:10:00,
2013-06-18 18:15:00,73.0,47.9,29.69,South,180,0.0,0.0,41,0.00,,,-99.99,VWS V12.07,2013-06-18 23:15:00,
2013-06-18 18:20:00,74.1,48.3,29.69,South,180,0.0,0.0,40,0.00,,,-99.99,VWS V12.07,2013-06-18 23:20:00,
2013-06-18 18:25:00,75.3,49.3,29.69,South,180,0.0,0.0,40,0.00,,,-99.99,VWS V12.07,2013-06-18 23:25:00,
2013-06-18 18:30:00,75.9,49.2,29.69,ENE,68,0.0,0.0,39,0.00,,,-99.99,VWS V12.07,2013-06-18 23:30:00,
2013-06-18 18:35:00,75.9,49.2,29.69,ENE,68,0.0,0.0,39,0.00,,,-99.99,VWS V12.07,2013-06-18 23:35:00,
2013-06-18 18:40:00,75.9,49.2,29.69,ENE,68,0.0,0.0,39,0.00,,,-99.99,VWS V12.07,2013-06-18 23:40:00,
2013-06-18 18:45:00,75.9,49.2,29.69,South,180,0.0,0.0,39,0.00,,,-99.99,VWS V12.07,2013-06-18 23:45:00,
2013-06-18 18:50:00,75.9,49.2,29.68,South,180,0.0,0.0,39,0.00,,,-99.99,VWS V12.07,2013-06-18 23:50:00,
2013-06-18 18:55:00,75.5,48.8,29.68,South,180,0.0,0.0,39,0.00,,,-99.99,VWS V12.07,2013-06-18 23:55:00,
2013-06-18 19:00:00,75.3,48.7,29.68,SE,135,0.0,0.0,39,0.00,,,-99.99,VWS V12.07,2013-06-19 00:00:00,
2013-06-18 19:05:00,75.0,48.4,29.67,ENE,68,0.0,0.0,39,0.00,,,-99.99,VWS V12.07,2013-06-19 00:05:00,
2013-06-18 19:10:00,74.4,48.5,29.68,ENE,68,0.0,0.0,40,0.00,,,-99.99,VWS V12.07,2013-06-19 00:10:00,
2013-06-18 19:15:00,74.1,48.3,29.68,ENE,68,0.0,0.0,40,0.00,,,-99.99,VWS V12.07,2013-06-19 00:15:00,
2013-06-18 19:20:00,73.5,47.7,29.68,ENE,68,0.0,0.0,40,0.00,,,-99.99,VWS V12.07,2013-06-19 00:20:00,
2013-06-18 19:25:00,73.2,48.1,29.68,ENE,68,0.0,0.0,41,0.00,,,-99.99,VWS V12.07,2013-06-19 00:25:00,
2013-06-18 19:30:00,73.2,48.1,29.68,ENE,68,0.0,0.0,41,0.00,,,-99.99,VWS V12.07,2013-06-19 00:30:00,
2013-06-18 19:35:00,73.2,48.1,29.68,ENE,68,0.0,0.0,41,0.00,,,-99.99,VWS V12.07,2013-06-19 00:35:00,
2013-06-18 19:40:00,73.2,48.1,29.69,ENE,68,0.0,0.0,41,0.00,,,-99.99,VWS V12.07,2013-06-19 00:40:00,
2013-06-18 19:45:00,73.4,48.3,29.69,ENE,68,0.0,0.0,41,0.00,,,-99.99,VWS V12.07,2013-06-19 00:45:00,
2013-06-18 19:50:00,73.2,48.1,29.69,East,90,0.0,0.0,41,0.00,,,-99.99,VWS V12.07,2013-06-19 00:50:00,
2013-06-18 19:55:00,72.5,47.5,29.69,East,90,0.0,0.0,41,0.00,,,-99.99,VWS V12.07,2013-06-19 00:55:00,
2013-06-18 20:00:00,71.7,46.8,29.69,East,90,0.0,0.0,41,0.00,,,-99.99,VWS V12.07,2013-06-19 01:00:00,
2013-06-18 20:05:00,70.5,46.3,29.69,East,90,0.0,0.0,42,0.00,,,-99.99,VWS V12.07,2013-06-19 01:05:00,
2013-06-18 20:10:00,69.6,46.1,29.69,East,90,0.0,0.0,43,0.00,,,-99.99,VWS V12.07,2013-06-19 01:10:00,
2013-06-18 20:15:00,68.5,45.1,29.69,East,90,0.0,0.0,43,0.00,,,-99.99,VWS V12.07,2013-06-19 01:15:00,
2013-06-18 20:20:00,67.1,45.1,29.69,East,90,0.0,0.0,45,0.00,,,-99.99,VWS V12.07,2013-06-19 01:20:00,
2013-06-18 20:30:00,65.3,44.6,29.69,East,90,0.0,0.0,47,0.00,,,-99.99,VWS V12.07,2013-06-19 01:30:00,
2013-06-18 20:35:00,64.2,44.1,29.69,East,90,0.0,0.0,48,0.00,,,-99.99,VWS V12.07,2013-06-19 01:35:00,
2013-06-18 20:40:00,63.5,44.0,29.70,East,90,0.0,0.0,49,0.00,,,-99.99,VWS V12.07,2013-06-19 01:40:00,
2013-06-18 20:45:00,62.7,43.8,29.70,East,90,0.0,0.0,50,0.00,,,-99.99,VWS V12.07,2013-06-19 01:45:00,
2013-06-18 20:50:00,61.8,43.5,29.71,East,90,0.0,0.0,51,0.00,,,-99.99,VWS V12.07,2013-06-19 01:50:00,
2013-06-18 20:55:00,61.1,43.4,29.71,East,90,0.0,0.0,52,0.00,,,-99.99,VWS V12.07,2013-06-19 01:55:00,
2013-06-18 21:00:00,60.6,43.4,29.72,East,90,0.0,0.0,53,0.00,,,-99.99,VWS V12.07,2013-06-19 02:00:00,
2013-06-18 21:05:00,59.5,42.9,29.72,East,90,0.0,0.0,54,0.00,,,-99.99,VWS V12.07,2013-06-19 02:05:00,
2013-06-18 21:10:00,58.8,42.2,29.72,East,90,0.0,0.0,54,0.00,,,-99.99,VWS V12.07,2013-06-19 02:10:00,
2013-06-18 21:15:00,58.6,42.5,29.72,SSE,158,0.0,0.0,55,0.00,,,-99.99,VWS V12.07,2013-06-19 02:15:00,
2013-06-18 21:20:00,57.5,41.5,29.72,SSE,158,0.0,0.0,55,0.00,,,-99.99,VWS V12.07,2013-06-19 02:20:00,
2013-06-18 21:25:00,57.0,41.0,29.72,SSE,158,0.0,0.0,55,0.00,,,-99.99,VWS V12.07,2013-06-19 02:25:00,
2013-06-18 21:30:00,56.8,40.8,29.72,SSE,158,0.0,0.0,55,0.00,,,-99.99,VWS V12.07,2013-06-19 02:30:00,
2013-06-18 21:35:00,56.3,40.8,29.72,SSE,158,0.0,0.0,56,0.00,,,-99.99,VWS V12.07,2013-06-19 02:35:00,
2013-06-18 21:40:00,56.1,40.6,29.71,NE,45,0.0,0.0,56,0.00,,,-99.99,VWS V12.07,2013-06-19 02:40:00,
2013-06-18 21:45:00,56.1,40.6,29.71,NE,45,0.0,0.0,56,0.00,,,-99.99,VWS V12.07,2013-06-19 02:45:00,
2013-06-18 21:50:00,55.9,40.9,29.71,NE,45,0.0,0.0,57,0.00,,,-99.99,VWS V12.07,2013-06-19 02:50:00,
2013-06-18 21:55:00,55.7,40.7,29.71,NE,45,0.0,0.0,57,0.00,,,-99.99,VWS V12.07,2013-06-19 02:55:00,
2013-06-18 22:00:00,55.5,40.5,29.71,NE,45,0.0,0.0,57,0.00,,,-99.99,VWS V12.07,2013-06-19 03:00:00,
2013-06-18 22:05:00,55.4,40.9,29.71,NE,45,0.0,0.0,58,0.00,,,-99.99,VWS V12.07,2013-06-19 03:05:00,
2013-06-18 22:10:00,55.2,40.7,29.71,NE,45,0.0,0.0,58,0.00,,,-99.99,VWS V12.07,2013-06-19 03:10:00,
2013-06-18 22:15:00,55.0,40.5,29.71,NE,45,0.0,0.0,58,0.00,,,-99.99,VWS V12.07,2013-06-19 03:15:00,
2013-06-18 22:20:00,54.8,40.3,29.71,NE,45,0.0,0.0,58,0.00,,,-99.99,VWS V12.07,2013-06-19 03:20:00,
2013-06-18 22:25:00,54.5,40.5,29.71,NE,45,0.0,0.0,59,0.00,,,-99.99,VWS V12.07,2013-06-19 03:25:00,
2013-06-18 22:30:00,54.3,40.3,29.71,NE,45,0.0,0.0,59,0.00,,,-99.99,VWS V12.07,2013-06-19 03:30:00,
2013-06-18 22:35:00,53.9,39.9,29.71,NE,45,0.0,0.0,59,0.00,,,-99.99,VWS V12.07,2013-06-19 03:35:00,
2013-06-18 22:40:00,53.7,39.7,29.71,NE,45,0.0,0.0,59,0.00,,,-99.99,VWS V12.07,2013-06-19 03:40:00,
2013-06-18 22:45:00,53.4,39.5,29.71,NE,45,0.0,0.0,59,0.00,,,-99.99,VWS V12.07,2013-06-19 03:45:00,
2013-06-18 22:50:00,53.2,39.7,29.70,NE,45,0.0,0.0,60,0.00,,,-99.99,VWS V12.07,2013-06-19 03:50:00,
2013-06-18 22:55:00,52.8,39.3,29.70,NE,45,0.0,0.0,60,0.00,,,-99.99,VWS V12.07,2013-06-19 03:55:00,
2013-06-18 23:00:00,52.8,39.3,29.71,NE,45,0.0,0.0,60,0.00,,,-99.99,VWS V12.07,2013-06-19 04:00:00,
2013-06-18 23:05:00,52.5,39.5,29.71,NE,45,0.0,0.0,61,0.00,,,-99.99,VWS V12.07,2013-06-19 04:05:00,
2013-06-18 23:10:00,52.5,39.5,29.71,NE,45,0.0,0.0,61,0.00,,,-99.99,VWS V12.07,2013-06-19 04:10:00,
2013-06-18 23:15:00,52.3,39.7,29.71,NE,45,0.0,0.0,62,0.00,,,-99.99,VWS V12.07,2013-06-19 04:15:00,
2013-06-18 23:20:00,51.9,39.3,29.72,NE,45,0.0,0.0,62,0.00,,,-99.99,VWS V12.07,2013-06-19 04:20:00,
2013-06-18 23:25:00,51.8,39.2,29.72,NE,45,0.0,0.0,62,0.00,,,-99.99,VWS V12.07,2013-06-19 04:25:00,
2013-06-18 23:30:00,51.6,39.0,29.72,NE,45,0.0,0.0,62,0.00,,,-99.99,VWS V12.07,2013-06-19 04:30:00,
2013-06-18 23:35:00,51.4,39.2,29.72,NE,45,0.0,0.0,63,0.00,,,-99.99,VWS V12.07,2013-06-19 04:35:00,
2013-06-18 23:40:00,51.2,39.0,29.71,NE,45,0.0,0.0,63,0.00,,,-99.99,VWS V12.07,2013-06-19 04:40:00,
2013-06-18 23:45:00,51.0,38.9,29.71,NE,45,0.0,0.0,63,0.00,,,-99.99,VWS V12.07,2013-06-19 04:45:00,
2013-06-18 23:50:00,50.7,39.0,29.71,NE,45,0.0,0.0,64,0.00,,,-99.99,VWS V12.07,2013-06-19 04:50:00,
2013-06-18 23:55:00,50.7,39.0,29.70,NE,45,0.0,0.0,64,0.00,,,-99.99,VWS V12.07,2013-06-19 04:55:00,